WetterOnline ( http://www.wetteronline.de )

Wetter aktuell Neubrandenburg

Aktuelles Wetter: Feldberg (115m)

6-stündlich | Neueste Meldungen
Ortszeit Temperatur Wetter
Fr, 16.11. 7:00 3.2° C wolkenlos
Fr, 16.11. 1:00 4.5° C leicht bewölkt
Do, 15.11. 19:00 6.6° C fast wolkenlos
Do, 15.11. 13:00 9.1° C bedeckt
Do, 15.11. 7:00 5.7° C bedeckt
Do, 15.11. 1:00 5.0° C wolkig
Mi, 14.11. 19:00 6.6° C leicht bewölkt
Mi, 14.11. 13:00 9.6° C fast wolkenlos
Ortszeit Temperatur Wetter
Fr, 16.11. 10:30 6.1° C wolkenlos
Fr, 16.11. 10:20 6.1° C wolkenlos
Fr, 16.11. 10:10 5.9° C fast wolkenlos
Fr, 16.11. 10:00 5.6° C leicht bewölkt
Fr, 16.11. 9:50 5.6° C leicht bewölkt
Fr, 16.11. 9:40 5.4° C leicht bewölkt
Fr, 16.11. 9:30 4.9° C leicht bewölkt
Fr, 16.11. 9:00 4.4° C wolkenlos
Fr, 16.11. 8:30 3.6° C wolkenlos
Fr, 16.11. 8:00 3.2° C wolkenlos
Fr, 16.11. 7:30 3.0° C fast wolkenlos
Ortszeit Relative Feuchte Sichtweite
Fr, 16.11. 7:00 88% 9 km
Fr, 16.11. 1:00 87% 9 km
Do, 15.11. 19:00 88% 18 km
Do, 15.11. 13:00 82% 19 km
Do, 15.11. 7:00 99% 2.6 km
Do, 15.11. 1:00 100% 1.8 km
Mi, 14.11. 19:00 96% 8 km
Mi, 14.11. 13:00 80% 18 km
Ortszeit Relative Feuchte Sichtweite
Fr, 16.11. 10:30 72% 19 km
Fr, 16.11. 10:20 72% -
Fr, 16.11. 10:10 74% -
Fr, 16.11. 10:00 75% 19 km
Fr, 16.11. 9:50 75% -
Fr, 16.11. 9:40 76% -
Fr, 16.11. 9:30 80% 12 km
Fr, 16.11. 9:00 85% 10 km
Fr, 16.11. 8:30 89% 8 km
Fr, 16.11. 8:00 91% 7 km
Fr, 16.11. 7:30 90% 8 km
Ortszeit Niederschlagsmenge Niederschlagsart
Fr, 16.11. 7:00 0.0 l/m2 in 12 Std. -
Fr, 16.11. 1:00 0.0 l/m2 in 6 Std. -
Do, 15.11. 19:00 0.0 l/m2 in 12 Std. -
Do, 15.11. 13:00 0.0 l/m2 in 6 Std. -
Do, 15.11. 7:00 0.0 l/m2 in 12 Std. -
Do, 15.11. 1:00 0.0 l/m2 in 6 Std. -
Mi, 14.11. 19:00 0.0 l/m2 in 12 Std. -
Mi, 14.11. 13:00 0.0 l/m2 in 6 Std. -
Ortszeit Niederschlagsmenge Niederschlagsart
Fr, 16.11. 10:30 0.0 l/m2 in 1 Std. -
Fr, 16.11. 10:20 keine Meldung -
Fr, 16.11. 10:10 keine Meldung -
Fr, 16.11. 10:00 0.0 l/m2 in 1 Std. -
Fr, 16.11. 9:50 keine Meldung -
Fr, 16.11. 9:40 keine Meldung -
Fr, 16.11. 9:30 0.0 l/m2 in 1 Std. -
Fr, 16.11. 9:00 0.0 l/m2 in 1 Std. -
Fr, 16.11. 8:30 0.0 l/m2 in 1 Std. -
Fr, 16.11. 8:00 0.0 l/m2 in 1 Std. -
Fr, 16.11. 7:30 0.0 l/m2 in 1 Std. -
Ortszeit Stärke Spitze Richtung
km/h Bft. km/h Grad Sektor
Fr, 16.11. 7:00 14 3 25 120° SO
Fr, 16.11. 1:00 13 3 26 130° SO
Do, 15.11. 19:00 14 3 25 120° SO
Do, 15.11. 13:00 11 2 18 120° SO
Do, 15.11. 7:00 7 2 7 90° O
Do, 15.11. 1:00 0 0 7 - -
Mi, 14.11. 19:00 4 1 22 160° S
Mi, 14.11. 13:00 13 3 24 240° SW
Ortszeit Stärke Spitze Richtung
km/h Bft. km/h Grad Sektor
Fr, 16.11. 10:30 14 3 25 150° SO
Fr, 16.11. 10:20 14 3 - 150° SO
Fr, 16.11. 10:10 14 3 - 150° SO
Fr, 16.11. 10:00 13 3 28 140° SO
Fr, 16.11. 9:50 13 3 - 140° SO
Fr, 16.11. 9:40 13 3 - 140° SO
Fr, 16.11. 9:30 13 3 24 140° SO
Fr, 16.11. 9:00 14 3 22 130° SO
Fr, 16.11. 8:30 13 3 20 120° SO
Fr, 16.11. 8:00 13 3 24 130° SO
Fr, 16.11. 7:30 14 3 25 120° SO
Ortszeit Untergrenze Bedeckung Gattung
total tief tief mittel hoch
Fr, 16.11. 7:00 8400 m 0/8 0/8 - - -
Fr, 16.11. 1:00 8400 m 3/8 0/8 - - -
Do, 15.11. 19:00 8400 m 1/8 0/8 - - -
Do, 15.11. 13:00 3600 m 8/8 8/8 - - -
Do, 15.11. 7:00 2700 m 8/8 8/8 - - -
Do, 15.11. 1:00 4800 m 5/8 5/8 - - -
Mi, 14.11. 19:00 180 m 3/8 1/8 - - -
Mi, 14.11. 13:00 7500 m 2/8 0/8 - - -
Ortszeit Bedeckungsgrad in Achtel und Wolkenuntergrenze
Fr, 16.11. 10:30 keine Wolken
Fr, 16.11. 10:20 keine Wolken
Fr, 16.11. 10:10 1(8700m)
Fr, 16.11. 10:00 3(8400m)
Fr, 16.11. 9:50 3(8400m)
Fr, 16.11. 9:40 4(8400m)
Fr, 16.11. 9:30 1(7800m) 3(8400m)
Fr, 16.11. 9:00 keine Wolken
Fr, 16.11. 8:30 keine Wolken
Fr, 16.11. 8:00 keine Wolken
Fr, 16.11. 7:30 1(8400m)
Ortszeit Luftdruck NN (hPa) Tendenz (hPa in 3 Std.)
Fr, 16.11. 7:00 1035 + 0,8
Fr, 16.11. 1:00 1033 + 0,6
Do, 15.11. 19:00 1032 + 0,5
Do, 15.11. 13:00 1031 - 0,2
Do, 15.11. 7:00 1030 + 0,3
Do, 15.11. 1:00 1030 + 0,3
Mi, 14.11. 19:00 1030 - 0,1
Mi, 14.11. 13:00 1029 + 0,9
Ortszeit Luftdruck NN (hPa) Tendenz (hPa in 3 Std.)
Fr, 16.11. 10:30 1036 + 1,3
Fr, 16.11. 10:20 1036 keine Meldung
Fr, 16.11. 10:10 1036 keine Meldung
Fr, 16.11. 10:00 1037 + 1,7
Fr, 16.11. 9:50 1037 keine Meldung
Fr, 16.11. 9:40 1037 keine Meldung
Fr, 16.11. 9:30 1036 + 1,6
Fr, 16.11. 9:00 1036 + 1,7
Fr, 16.11. 8:30 1036 + 1,6
Fr, 16.11. 8:00 1036 + 1,4
Fr, 16.11. 7:30 1035 + 1,1
Ortszeit Schneehöhe (cm)
Fr, 16.11. 7:00 0
Fr, 16.11. 1:00 0
Do, 15.11. 19:00 0
Do, 15.11. 13:00 0
Do, 15.11. 7:00 0
Do, 15.11. 1:00 0
Mi, 14.11. 19:00 0
Mi, 14.11. 13:00 0
Ortszeit Schneehöhe (cm)
Fr, 16.11. 10:30 0
Fr, 16.11. 10:20 0
Fr, 16.11. 10:10 0
Fr, 16.11. 10:00 0
Fr, 16.11. 9:50 0
Fr, 16.11. 9:40 0
Fr, 16.11. 9:30 0
Fr, 16.11. 9:00 0
Fr, 16.11. 8:30 0
Fr, 16.11. 8:00 0
Fr, 16.11. 7:30 0
Link zu dieser Seite / Seite empfehlen

Das Wetter in ...